Time;durP1;ratioP1;P1;durP2;ratioP2;P2;SDS_P1;SDS_P2;PMS_P1;PMS_P2;Temp;Humidity;BMP_temperature;BMP_pressure;BME280_temperature;BME280_humidity;BME280_pressure;Samples;Min_cycle;Max_cycle;Signal;HPM_P1;HPM_P2
2023/04/23 00:01:57;;;;;;;5.40;1.30;;;12.30;99.90;;;;;;4988967;28;20184;-78
2023/04/23 00:04:25;;;;;;;3.07;1.43;;;12.30;99.90;;;;;;5012916;28;20273;-78
2023/04/23 00:06:51;;;;;;;3.67;1.50;;;12.30;99.90;;;;;;5014195;28;20410;-77
2023/04/23 00:09:17;;;;;;;5.37;1.67;;;12.30;99.90;;;;;;5014007;28;20768;-76
2023/04/23 00:11:44;;;;;;;2.63;1.70;;;12.20;99.90;;;;;;5003645;28;20642;-75
2023/04/23 00:14:10;;;;;;;2.63;1.10;;;12.30;99.90;;;;;;4992831;28;20970;-75
2023/04/23 00:16:38;;;;;;;8.60;1.40;;;12.30;99.90;;;;;;4994393;28;20407;-76
2023/04/23 00:19:03;;;;;;;3.63;1.87;;;12.30;99.90;;;;;;4988098;28;20465;-75
2023/04/23 00:21:30;;;;;;;11.37;2.07;;;12.30;99.90;;;;;;4987288;28;20490;-75
2023/04/23 00:23:55;;;;;;;2.47;1.47;;;12.30;99.90;;;;;;5013584;28;20546;-76
2023/04/23 00:26:21;;;;;;;2.07;1.30;;;12.30;99.90;;;;;;5001128;28;20439;-75
2023/04/23 00:28:47;;;;;;;2.40;1.70;;;12.30;99.90;;;;;;5007591;28;20598;-75
2023/04/23 00:31:12;;;;;;;3.90;1.20;;;12.20;99.90;;;;;;4995771;28;20211;-75
2023/04/23 00:33:38;;;;;;;2.00;1.00;;;12.20;99.90;;;;;;5001301;28;20299;-76
2023/04/23 00:36:04;;;;;;;2.90;1.10;;;12.20;99.90;;;;;;4986712;28;20187;-76
2023/04/23 00:38:29;;;;;;;2.77;0.90;;;12.10;99.90;;;;;;4986806;28;20194;-76
2023/04/23 00:40:55;;;;;;;3.83;1.47;;;12.10;99.90;;;;;;5014187;28;20183;-76
2023/04/23 00:43:20;;;;;;;9.30;1.53;;;12.10;99.90;;;;;;4975030;28;20199;-78
2023/04/23 00:45:47;;;;;;;2.20;0.80;;;12.00;99.90;;;;;;4994510;28;20180;-79
2023/04/23 00:48:12;;;;;;;2.27;1.03;;;12.00;99.90;;;;;;5000243;28;20178;-78
2023/04/23 00:50:38;;;;;;;6.37;1.73;;;12.00;99.90;;;;;;5013448;28;20414;-78
2023/04/23 00:53:04;;;;;;;2.30;1.20;;;12.00;99.90;;;;;;4993934;28;20184;-79
2023/04/23 00:55:31;;;;;;;4.47;1.57;;;12.10;99.90;;;;;;4994057;28;20203;-78
2023/04/23 00:57:57;;;;;;;2.50;1.30;;;12.10;99.90;;;;;;5001095;28;20179;-78
2023/04/23 01:00:22;;;;;;;6.13;1.33;;;12.10;99.90;;;;;;5013623;28;20421;-78
2023/04/23 01:02:49;;;;;;;1.60;0.90;;;12.10;99.90;;;;;;4999864;28;20180;-79
2023/04/23 01:05:16;;;;;;;3.13;1.20;;;12.00;99.90;;;;;;5000126;28;20311;-78
2023/04/23 01:07:43;;;;;;;1.90;1.00;;;12.00;99.90;;;;;;4996931;28;20431;-79
2023/04/23 01:10:09;;;;;;;1.97;0.97;;;12.00;99.90;;;;;;4980596;28;20431;-76
2023/04/23 01:12:35;;;;;;;3.07;0.90;;;12.00;99.90;;;;;;5000508;28;20460;-76
2023/04/23 01:15:02;;;;;;;3.43;1.27;;;12.10;99.90;;;;;;5011585;28;20844;-76
2023/04/23 01:17:27;;;;;;;4.60;1.03;;;12.00;99.90;;;;;;4988251;28;20205;-76
2023/04/23 01:19:53;;;;;;;3.00;1.30;;;12.00;99.90;;;;;;5013267;28;21136;-76
2023/04/23 01:22:19;;;;;;;1.93;0.93;;;12.00;99.90;;;;;;5013443;28;20211;-76
2023/04/23 01:24:46;;;;;;;2.80;1.47;;;11.80;99.90;;;;;;5000903;28;20199;-76
2023/04/23 01:27:12;;;;;;;3.17;1.20;;;11.90;99.90;;;;;;5007856;28;20416;-76
2023/04/23 01:29:39;;;;;;;2.23;0.97;;;11.90;99.90;;;;;;4982559;28;20412;-76
2023/04/23 01:32:06;;;;;;;2.27;0.90;;;11.90;99.90;;;;;;4988308;28;20180;-76
2023/04/23 01:34:32;;;;;;;1.90;0.87;;;11.90;99.90;;;;;;4989611;28;20486;-76
2023/04/23 01:36:59;;;;;;;2.13;0.90;;;11.80;99.90;;;;;;5003646;28;20411;-76
2023/04/23 01:39:25;;;;;;;1.70;0.70;;;11.80;99.90;;;;;;4991925;28;20573;-76
2023/04/23 01:41:51;;;;;;;2.20;1.13;;;11.80;99.90;;;;;;5011875;28;20512;-76
2023/04/23 01:44:17;;;;;;;1.50;0.93;;;11.70;99.90;;;;;;5000951;28;20469;-76
2023/04/23 01:46:43;;;;;;;4.70;1.70;;;11.70;99.90;;;;;;4992897;28;20415;-76
2023/04/23 01:49:08;;;;;;;1.70;1.10;;;11.70;99.90;;;;;;4992583;28;20188;-76
2023/04/23 01:51:34;;;;;;;2.27;1.23;;;11.70;99.90;;;;;;4984898;28;20181;-77
2023/04/23 01:54:00;;;;;;;1.60;1.00;;;11.70;99.90;;;;;;4973305;28;20204;-76
2023/04/23 01:56:26;;;;;;;2.03;1.23;;;11.60;99.90;;;;;;4980792;28;20502;-76
2023/04/23 01:58:52;;;;;;;1.87;0.80;;;11.80;99.90;;;;;;5005724;28;20179;-76
2023/04/23 02:01:18;;;;;;;1.90;0.93;;;11.60;99.90;;;;;;4999587;28;20422;-76
2023/04/23 02:03:44;;;;;;;2.00;1.13;;;11.60;99.90;;;;;;5010873;28;20241;-76
2023/04/23 02:06:10;;;;;;;1.50;0.70;;;11.60;99.90;;;;;;4980193;28;20198;-76
2023/04/23 02:08:36;;;;;;;3.40;0.90;;;11.60;99.90;;;;;;4992985;28;20411;-77
2023/04/23 02:11:02;;;;;;;1.57;0.60;;;11.60;99.90;;;;;;5005407;28;20939;-76
2023/04/23 02:13:27;;;;;;;2.50;0.90;;;11.60;99.90;;;;;;4979119;28;20456;-76
2023/04/23 02:15:53;;;;;;;2.03;0.87;;;11.50;99.90;;;;;;4979320;28;20234;-76
2023/04/23 02:18:19;;;;;;;4.40;0.77;;;11.50;99.90;;;;;;4992779;28;20202;-76
2023/04/23 02:20:44;;;;;;;2.00;1.23;;;11.50;99.90;;;;;;5011733;28;20191;-76
2023/04/23 02:23:11;;;;;;;2.10;1.00;;;11.40;99.90;;;;;;5011550;28;20186;-75
2023/04/23 02:25:40;;;;;;;1.93;1.00;;;11.40;99.90;;;;;;4999470;28;20232;-75
2023/04/23 02:28:07;;;;;;;2.40;1.07;;;11.40;99.90;;;;;;5015411;28;20468;-76
2023/04/23 02:30:33;;;;;;;3.40;1.13;;;11.20;99.90;;;;;;5008525;28;20419;-75
2023/04/23 02:32:59;;;;;;;2.23;1.13;;;11.10;99.90;;;;;;4982714;28;20422;-76
2023/04/23 02:35:25;;;;;;;1.40;0.80;;;11.10;99.90;;;;;;4988609;28;20471;-75
2023/04/23 02:37:53;;;;;;;1.90;0.90;;;11.00;99.90;;;;;;5006528;28;20765;-75
2023/04/23 02:40:18;;;;;;;1.60;0.80;;;10.90;99.90;;;;;;5002816;28;20418;-75
2023/04/23 02:42:44;;;;;;;3.40;1.47;;;10.80;99.90;;;;;;5001571;28;20810;-75
2023/04/23 02:45:10;;;;;;;2.90;0.87;;;10.70;99.90;;;;;;4996567;28;20183;-78
2023/04/23 02:47:36;;;;;;;3.50;0.90;;;10.80;99.90;;;;;;4996254;28;20242;-75
2023/04/23 02:50:04;;;;;;;2.07;0.80;;;10.70;99.90;;;;;;5014514;28;20452;-75
2023/04/23 02:52:30;;;;;;;1.83;0.87;;;10.70;99.90;;;;;;4987968;28;20193;-75
2023/04/23 02:54:56;;;;;;;1.70;0.80;;;10.70;99.90;;;;;;5005786;28;20469;-75
2023/04/23 02:57:22;;;;;;;1.47;0.70;;;10.60;99.90;;;;;;4996999;28;20184;-75
2023/04/23 02:59:49;;;;;;;2.33;1.00;;;10.60;99.90;;;;;;5005882;28;20262;-75
2023/04/23 03:02:15;;;;;;;1.77;1.03;;;10.60;99.90;;;;;;4996342;28;20220;-75
2023/04/23 03:04:41;;;;;;;2.17;0.90;;;10.60;99.90;;;;;;5014231;28;20421;-75
2023/04/23 03:07:06;;;;;;;12.50;1.20;;;10.60;99.90;;;;;;5004468;28;20182;-75
2023/04/23 03:09:32;;;;;;;2.43;1.33;;;10.50;99.90;;;;;;5013964;28;20194;-75
2023/04/23 03:11:58;;;;;;;3.83;1.00;;;10.50;99.90;;;;;;4998426;28;20660;-75
2023/04/23 03:14:23;;;;;;;1.87;0.90;;;10.50;99.90;;;;;;4997886;28;20246;-75
2023/04/23 03:16:49;;;;;;;1.93;0.97;;;10.40;99.90;;;;;;5007783;28;20176;-75
2023/04/23 03:19:15;;;;;;;1.80;0.80;;;10.40;99.90;;;;;;5002398;28;20228;-75
2023/04/23 03:21:41;;;;;;;1.97;1.20;;;10.40;99.90;;;;;;4998840;28;20266;-75
2023/04/23 03:24:06;;;;;;;2.93;1.63;;;10.40;99.90;;;;;;5001966;28;20196;-75
2023/04/23 03:26:33;;;;;;;1.90;1.10;;;10.40;99.90;;;;;;5000231;28;20203;-75
2023/04/23 03:28:59;;;;;;;2.00;1.10;;;10.40;99.90;;;;;;4998776;28;20295;-75
2023/04/23 03:31:24;;;;;;;2.67;1.40;;;10.40;99.90;;;;;;5002321;28;20501;-74
2023/04/23 03:33:50;;;;;;;2.13;1.13;;;10.40;99.90;;;;;;4986692;28;20200;-74
2023/04/23 03:36:16;;;;;;;2.73;1.00;;;10.40;99.90;;;;;;5003255;28;20187;-74
2023/04/23 03:38:41;;;;;;;3.07;1.20;;;10.40;99.90;;;;;;5005707;28;20183;-74
2023/04/23 03:41:07;;;;;;;1.73;0.93;;;10.40;99.90;;;;;;4994377;28;20336;-74
2023/04/23 03:43:32;;;;;;;2.17;1.30;;;10.30;99.90;;;;;;4996263;28;20180;-75
2023/04/23 03:45:58;;;;;;;1.93;1.33;;;10.30;99.90;;;;;;4994418;28;20218;-74
2023/04/23 03:48:24;;;;;;;2.50;1.23;;;10.40;99.90;;;;;;4994592;28;20270;-75
2023/04/23 03:50:49;;;;;;;2.20;1.13;;;10.40;99.90;;;;;;5007143;28;20555;-74
2023/04/23 03:53:16;;;;;;;1.80;1.00;;;10.40;99.90;;;;;;5002068;28;20183;-74
2023/04/23 03:55:42;;;;;;;1.57;0.80;;;10.30;99.90;;;;;;5000750;28;20238;-74
2023/04/23 03:58:08;;;;;;;4.23;1.27;;;10.40;99.90;;;;;;5005688;28;20454;-74
2023/04/23 04:00:34;;;;;;;3.33;1.40;;;10.40;99.90;;;;;;4981178;28;20511;-74
2023/04/23 04:03:00;;;;;;;2.20;1.40;;;10.40;99.90;;;;;;4985988;28;20180;-74
2023/04/23 04:05:27;;;;;;;2.07;1.13;;;10.40;99.90;;;;;;5002427;28;20179;-74
2023/04/23 04:07:53;;;;;;;6.83;1.30;;;10.40;99.90;;;;;;4994403;28;20434;-74
2023/04/23 04:10:19;;;;;;;2.60;1.37;;;10.30;99.90;;;;;;4992711;28;20481;-74
2023/04/23 04:12:46;;;;;;;2.30;1.27;;;10.40;99.90;;;;;;4982636;28;20514;-74
2023/04/23 04:15:12;;;;;;;1.90;1.03;;;10.40;99.90;;;;;;4992341;28;20195;-74
2023/04/23 04:17:38;;;;;;;2.80;1.27;;;10.40;99.90;;;;;;4983303;28;20419;-74
2023/04/23 04:20:06;;;;;;;2.80;1.00;;;10.40;99.90;;;;;;4982741;28;20881;-74
2023/04/23 04:22:33;;;;;;;1.93;1.10;;;10.40;99.90;;;;;;5004607;28;20180;-74
2023/04/23 04:24:58;;;;;;;2.50;1.07;;;10.40;99.90;;;;;;4981077;28;20435;-74
2023/04/23 04:27:24;;;;;;;1.87;0.90;;;10.40;99.90;;;;;;4985938;28;20482;-74
2023/04/23 04:29:50;;;;;;;2.03;0.83;;;10.30;99.90;;;;;;5004352;28;20222;-74
2023/04/23 04:32:16;;;;;;;1.40;0.73;;;10.30;99.90;;;;;;5005326;28;20629;-74
2023/04/23 04:34:42;;;;;;;1.60;0.90;;;10.30;99.90;;;;;;4995800;28;20458;-74
2023/04/23 04:37:08;;;;;;;3.13;0.97;;;10.30;99.90;;;;;;5006930;28;20191;-74
2023/04/23 04:39:34;;;;;;;1.63;0.80;;;10.30;99.90;;;;;;4994433;28;20176;-74
2023/04/23 04:42:01;;;;;;;1.50;0.70;;;10.20;99.90;;;;;;5001712;28;20513;-74
2023/04/23 04:44:27;;;;;;;1.57;0.90;;;10.10;99.90;;;;;;4999988;28;20513;-74
2023/04/23 04:46:53;;;;;;;2.03;1.00;;;10.10;99.90;;;;;;5001594;28;20421;-74
2023/04/23 04:49:19;;;;;;;3.30;1.10;;;10.10;99.90;;;;;;5010157;28;20474;-74
2023/04/23 04:51:44;;;;;;;1.60;0.90;;;10.10;99.90;;;;;;4999514;28;20540;-74
2023/04/23 04:54:10;;;;;;;2.70;0.87;;;10.10;99.90;;;;;;4983697;28;20208;-74
2023/04/23 04:56:36;;;;;;;2.47;1.10;;;10.10;99.90;;;;;;5013788;28;20183;-74
2023/04/23 04:59:01;;;;;;;2.23;1.20;;;10.00;99.90;;;;;;4997997;28;20202;-74
2023/04/23 05:01:28;;;;;;;3.47;1.30;;;10.10;99.90;;;;;;4994010;28;20274;-74
2023/04/23 05:03:55;;;;;;;2.20;1.07;;;10.10;99.90;;;;;;4996884;28;20190;-74
2023/04/23 05:06:20;;;;;;;2.03;0.87;;;10.10;99.90;;;;;;5008388;28;20474;-74
2023/04/23 05:08:47;;;;;;;1.70;0.80;;;10.10;99.90;;;;;;5007267;28;20775;-74
2023/04/23 05:11:14;;;;;;;1.50;0.83;;;10.20;99.90;;;;;;5002836;28;20182;-74
2023/04/23 05:13:40;;;;;;;3.80;1.30;;;10.20;99.90;;;;;;4995751;28;21006;-74
2023/04/23 05:16:05;;;;;;;1.50;0.60;;;10.20;99.90;;;;;;4983776;28;20452;-75
2023/04/23 05:18:31;;;;;;;2.43;0.80;;;10.20;99.90;;;;;;4986897;28;20539;-75
2023/04/23 05:20:57;;;;;;;2.13;0.90;;;10.20;99.90;;;;;;4983172;28;20515;-74
2023/04/23 05:23:23;;;;;;;1.30;0.50;;;10.40;99.90;;;;;;5009127;28;20202;-74
2023/04/23 05:25:50;;;;;;;1.60;0.90;;;10.30;99.90;;;;;;5003122;28;20196;-74
2023/04/23 05:28:16;;;;;;;1.40;0.70;;;10.40;99.90;;;;;;5009527;28;20186;-74
2023/04/23 05:30:42;;;;;;;1.33;0.60;;;10.40;99.90;;;;;;5003344;28;20419;-74
2023/04/23 05:33:08;;;;;;;1.20;0.50;;;10.40;99.90;;;;;;5005875;28;20191;-74
2023/04/23 05:35:33;;;;;;;2.33;1.03;;;10.40;99.90;;;;;;4983295;28;20211;-74
2023/04/23 05:38:00;;;;;;;2.40;0.90;;;10.50;99.90;;;;;;4989094;28;20184;-74
2023/04/23 05:40:26;;;;;;;1.40;0.63;;;10.60;99.90;;;;;;4992364;28;20179;-74
2023/04/23 05:42:51;;;;;;;1.67;0.60;;;10.80;99.90;;;;;;4999295;28;20463;-75
2023/04/23 05:45:17;;;;;;;1.43;0.73;;;10.70;99.90;;;;;;4993936;28;20255;-75
2023/04/23 05:47:43;;;;;;;1.50;0.70;;;10.60;99.90;;;;;;4993175;28;20179;-75
2023/04/23 05:50:10;;;;;;;1.30;0.57;;;10.60;99.90;;;;;;4992557;28;20799;-75
2023/04/23 05:52:36;;;;;;;1.30;0.50;;;10.60;99.90;;;;;;4994867;28;20575;-75
2023/04/23 05:55:02;;;;;;;1.63;0.83;;;10.50;99.90;;;;;;5003052;28;20463;-75
2023/04/23 05:57:27;;;;;;;1.60;0.83;;;10.50;99.90;;;;;;5005899;28;20651;-75
2023/04/23 05:59:53;;;;;;;1.83;0.60;;;10.50;99.90;;;;;;4983611;28;20275;-76
2023/04/23 06:02:19;;;;;;;1.40;0.70;;;10.60;99.90;;;;;;4994866;28;20782;-75
2023/04/23 06:04:44;;;;;;;1.60;0.80;;;10.80;99.90;;;;;;4997051;28;20180;-76
2023/04/23 06:07:11;;;;;;;1.17;0.60;;;10.80;99.90;;;;;;5012051;28;20179;-76
2023/04/23 06:09:36;;;;;;;2.07;0.83;;;10.90;99.90;;;;;;5016012;28;20207;-76
2023/04/23 06:12:02;;;;;;;4.60;0.70;;;11.00;99.90;;;;;;4997470;28;20923;-77
2023/04/23 06:14:28;;;;;;;1.30;0.57;;;11.10;99.90;;;;;;4998059;28;20203;-77
2023/04/23 06:16:54;;;;;;;1.30;0.60;;;11.20;99.90;;;;;;5000200;28;20176;-77
2023/04/23 06:19:19;;;;;;;1.50;0.67;;;11.20;99.90;;;;;;5004876;28;20615;-77
2023/04/23 06:21:45;;;;;;;1.10;0.50;;;11.40;99.90;;;;;;5005948;28;20183;-77
2023/04/23 06:24:11;;;;;;;1.30;0.60;;;11.40;99.90;;;;;;5005392;28;20183;-78
2023/04/23 06:26:36;;;;;;;2.23;0.97;;;11.50;99.90;;;;;;5012219;28;20686;-77
2023/04/23 06:29:02;;;;;;;1.97;0.80;;;11.50;99.90;;;;;;4997418;28;20675;-78
2023/04/23 06:31:28;;;;;;;1.40;0.60;;;11.50;99.90;;;;;;4993142;28;20192;-78
2023/04/23 06:33:53;;;;;;;1.40;0.60;;;11.50;99.90;;;;;;4991844;28;20212;-78
2023/04/23 06:36:20;;;;;;;1.20;0.50;;;11.50;99.90;;;;;;4999099;28;20191;-78
2023/04/23 06:38:45;;;;;;;1.43;0.60;;;11.50;99.90;;;;;;5016489;28;20190;-78
2023/04/23 06:41:11;;;;;;;1.30;0.60;;;11.50;99.90;;;;;;5013530;28;20414;-78
2023/04/23 06:43:38;;;;;;;1.50;0.70;;;11.50;99.90;;;;;;4992431;28;20171;-78
2023/04/23 06:46:03;;;;;;;1.20;0.50;;;11.60;99.90;;;;;;4994375;28;20411;-78
2023/04/23 06:48:31;;;;;;;1.17;0.50;;;11.70;99.90;;;;;;4995337;28;20424;-78
2023/04/23 06:50:56;;;;;;;2.17;0.60;;;11.90;99.90;;;;;;5003016;28;20191;-78
2023/04/23 06:53:22;;;;;;;3.50;0.70;;;12.10;99.90;;;;;;5007837;28;20423;-78
2023/04/23 06:55:49;;;;;;;1.83;0.60;;;12.20;99.90;;;;;;5013474;28;20257;-78
2023/04/23 06:58:14;;;;;;;1.87;0.63;;;12.40;99.90;;;;;;5018437;28;20258;-78
2023/04/23 07:00:41;;;;;;;4.80;0.80;;;12.50;99.90;;;;;;5014385;28;20442;-78
2023/04/23 07:03:06;;;;;;;1.30;0.60;;;12.40;99.90;;;;;;4986024;28;20235;-78
2023/04/23 07:05:32;;;;;;;1.30;0.60;;;12.50;99.90;;;;;;5007874;28;20458;-78
2023/04/23 07:07:57;;;;;;;5.00;0.73;;;12.60;99.90;;;;;;5003214;28;20265;-78
2023/04/23 07:10:24;;;;;;;1.47;0.80;;;12.80;99.90;;;;;;4999491;28;20605;-78
2023/04/23 07:12:49;;;;;;;1.73;0.80;;;13.10;99.90;;;;;;4984926;28;20271;-78
2023/04/23 07:15:15;;;;;;;1.20;0.50;;;13.10;99.90;;;;;;5002551;28;20877;-78
2023/04/23 07:17:40;;;;;;;2.53;0.80;;;13.40;99.90;;;;;;5002630;28;20519;-78
2023/04/23 07:20:07;;;;;;;1.57;0.80;;;13.50;99.90;;;;;;5000878;28;20568;-78
2023/04/23 07:22:33;;;;;;;1.30;0.60;;;13.60;99.90;;;;;;5013635;28;20175;-78
2023/04/23 07:25:00;;;;;;;1.50;0.50;;;13.90;99.90;;;;;;5000845;28;20836;-77
2023/04/23 07:27:26;;;;;;;1.30;0.50;;;14.10;99.90;;;;;;5009166;28;20506;-78
2023/04/23 07:29:51;;;;;;;1.60;0.60;;;14.50;99.90;;;;;;4999720;28;20562;-78
2023/04/23 07:32:17;;;;;;;2.83;1.00;;;14.70;99.90;;;;;;4998785;28;20187;-77
2023/04/23 07:34:43;;;;;;;2.10;0.80;;;14.90;99.90;;;;;;4987137;28;20199;-77
2023/04/23 07:37:09;;;;;;;1.40;0.80;;;15.30;99.90;;;;;;4991802;28;20419;-77
2023/04/23 07:39:35;;;;;;;1.60;0.60;;;15.70;99.90;;;;;;4990539;28;20231;-77
2023/04/23 07:42:04;;;;;;;1.30;0.60;;;15.50;99.90;;;;;;4990961;28;20548;-77
2023/04/23 07:44:30;;;;;;;1.67;0.60;;;15.80;99.90;;;;;;5009412;28;20508;-77
2023/04/23 07:46:56;;;;;;;1.93;0.70;;;16.30;99.40;;;;;;5009433;28;20421;-77
2023/04/23 07:49:21;;;;;;;1.40;0.70;;;16.50;98.70;;;;;;4999586;28;20559;-77
2023/04/23 07:51:47;;;;;;;1.80;0.83;;;17.20;97.60;;;;;;4990903;28;20214;-76
2023/04/23 07:54:13;;;;;;;1.40;0.57;;;17.40;96.60;;;;;;4994675;28;20200;-76
2023/04/23 07:56:39;;;;;;;2.10;1.10;;;17.20;96.30;;;;;;5003875;28;20509;-77
2023/04/23 07:59:05;;;;;;;2.43;0.77;;;17.00;97.20;;;;;;5013537;28;20229;-77
2023/04/23 08:01:32;;;;;;;4.53;1.60;;;16.60;97.00;;;;;;5004004;28;20595;-77
2023/04/23 08:03:59;;;;;;;2.03;0.80;;;16.70;97.20;;;;;;4997234;28;20266;-76
2023/04/23 08:06:25;;;;;;;1.47;0.60;;;16.80;97.30;;;;;;5013758;28;20425;-76
2023/04/23 08:08:52;;;;;;;1.80;0.80;;;17.40;95.40;;;;;;5010342;28;20423;-77
2023/04/23 08:11:18;;;;;;;1.80;0.70;;;17.20;97.10;;;;;;4994617;28;20431;-77
2023/04/23 08:13:43;;;;;;;1.30;0.60;;;17.00;96.30;;;;;;4980336;28;20426;-77
2023/04/23 08:16:09;;;;;;;1.33;0.60;;;16.60;96.20;;;;;;5003559;28;20549;-78
2023/04/23 08:18:35;;;;;;;1.70;0.90;;;16.30;97.90;;;;;;5013271;28;20175;-77
2023/04/23 08:21:00;;;;;;;2.30;0.90;;;15.80;98.70;;;;;;5013276;28;20187;-77
2023/04/23 08:23:26;;;;;;;1.63;0.60;;;15.70;98.00;;;;;;4999537;28;20226;-77
2023/04/23 08:25:52;;;;;;;1.73;0.80;;;15.70;98.30;;;;;;5013059;28;20211;-77
2023/04/23 08:28:18;;;;;;;1.30;0.50;;;15.60;97.90;;;;;;4997043;28;20188;-77
2023/04/23 08:30:44;;;;;;;3.70;1.10;;;15.70;97.60;;;;;;5003043;28;20275;-77
2023/04/23 08:33:10;;;;;;;1.50;0.70;;;15.90;96.30;;;;;;4998138;28;20497;-77
2023/04/23 08:35:35;;;;;;;1.60;0.87;;;16.10;96.80;;;;;;5001045;28;20203;-77
2023/04/23 08:38:01;;;;;;;1.63;0.73;;;16.10;96.20;;;;;;5007050;28;20225;-76
2023/04/23 08:40:30;;;;;;;3.83;0.80;;;15.70;96.80;;;;;;5002636;28;20675;-76
2023/04/23 08:43:04;;;;;;;1.30;0.50;;;15.50;97.50;;;;;;4992462;28;20266;-78
2023/04/23 08:45:30;;;;;;;2.30;1.00;;;15.30;98.20;;;;;;4992389;28;20423;-77
2023/04/23 08:47:59;;;;;;;1.93;0.73;;;15.20;98.50;;;;;;4999321;28;20446;-77
2023/04/23 08:50:27;;;;;;;1.87;1.07;;;15.30;97.50;;;;;;5000551;28;20419;-77
2023/04/23 08:52:54;;;;;;;2.03;0.90;;;15.40;98.20;;;;;;4992259;28;20919;-76
2023/04/23 08:55:21;;;;;;;1.97;0.80;;;15.60;97.80;;;;;;4991618;28;20585;-78
2023/04/23 08:57:47;;;;;;;1.60;0.70;;;15.70;98.30;;;;;;5010525;28;20784;-78
2023/04/23 09:00:15;;;;;;;1.90;0.90;;;16.10;96.60;;;;;;5011599;28;20449;-77
2023/04/23 09:02:44;;;;;;;2.57;0.90;;;16.50;96.90;;;;;;5011304;28;20556;-78
2023/04/23 09:05:12;;;;;;;2.97;1.00;;;16.60;95.70;;;;;;5012268;28;20644;-78
2023/04/23 09:07:38;;;;;;;2.37;0.90;;;17.00;93.80;;;;;;4990990;28;20439;-78
2023/04/23 09:10:10;;;;;;;2.57;0.90;;;17.20;92.30;;;;;;4997873;28;20433;-78
2023/04/23 09:12:36;;;;;;;1.60;0.70;;;17.80;92.30;;;;;;5010490;28;20425;-77
2023/04/23 09:15:09;;;;;;;2.00;0.80;;;18.10;91.70;;;;;;4983368;28;20464;-78
2023/04/23 09:17:39;;;;;;;1.63;0.70;;;18.20;91.60;;;;;;5000757;28;20433;-78
2023/04/23 09:20:05;;;;;;;3.83;1.47;;;18.20;91.20;;;;;;4987278;28;20435;-78
2023/04/23 09:22:37;;;;;;;2.43;0.60;;;18.20;91.60;;;;;;4998584;28;20422;-78
2023/04/23 09:25:04;;;;;;;3.50;1.10;;;18.60;91.10;;;;;;4988962;28;20934;-78
2023/04/23 09:27:30;;;;;;;2.43;0.97;;;18.80;90.50;;;;;;4998025;28;20439;-79
2023/04/23 09:29:56;;;;;;;1.50;0.70;;;19.10;88.60;;;;;;4992412;28;20918;-78
2023/04/23 09:32:30;;;;;;;2.00;0.87;;;19.00;89.00;;;;;;5001346;28;20214;-79
2023/04/23 09:34:56;;;;;;;4.90;0.70;;;19.40;86.60;;;;;;4997938;28;20941;-78
2023/04/23 09:37:24;;;;;;;2.10;0.70;;;19.40;87.50;;;;;;5006106;28;20422;-78
2023/04/23 09:39:52;;;;;;;2.47;1.30;;;19.50;87.30;;;;;;4999649;28;20224;-78
2023/04/23 09:42:23;;;;;;;4.50;0.97;;;19.40;86.20;;;;;;5016137;28;20496;-78
2023/04/23 09:45:11;;;;;;;1.80;0.60;;;19.70;84.70;;;;;;5003485;28;20425;-77
2023/04/23 09:47:40;;;;;;;1.47;0.70;;;19.30;85.90;;;;;;5006575;28;20490;-78
2023/04/23 09:50:09;;;;;;;1.70;0.80;;;19.30;85.10;;;;;;4995161;28;20427;-78
2023/04/23 09:52:38;;;;;;;1.53;0.67;;;18.70;83.40;;;;;;4989836;28;20426;-77
2023/04/23 09:55:05;;;;;;;10.73;0.93;;;18.70;85.50;;;;;;4996020;28;20559;-78
2023/04/23 09:57:37;;;;;;;4.33;1.23;;;18.50;87.60;;;;;;5016157;28;20949;-77
2023/04/23 10:00:21;;;;;;;1.80;0.60;;;18.40;87.20;;;;;;5015715;28;20480;-78
2023/04/23 10:02:50;;;;;;;1.43;0.50;;;18.50;89.70;;;;;;5002184;28;20432;-77
2023/04/23 10:05:18;;;;;;;1.80;0.80;;;18.40;87.50;;;;;;5015749;28;20477;-78
2023/04/23 10:07:47;;;;;;;1.80;0.53;;;18.10;89.20;;;;;;5009333;28;20426;-78
2023/04/23 10:10:17;;;;;;;2.73;1.03;;;18.20;90.30;;;;;;4996409;28;20427;-77
2023/04/23 10:12:44;;;;;;;1.90;0.80;;;18.20;85.80;;;;;;5003842;28;20850;-78
2023/04/23 10:15:11;;;;;;;2.23;0.90;;;18.00;88.50;;;;;;5012607;28;20556;-78
2023/04/23 10:17:38;;;;;;;1.40;0.60;;;18.20;90.00;;;;;;5013079;28;20412;-78
2023/04/23 10:20:05;;;;;;;1.70;0.60;;;18.30;85.50;;;;;;5002280;28;20870;-77
2023/04/23 10:22:33;;;;;;;1.57;0.70;;;18.20;86.10;;;;;;5007185;28;20411;-78
2023/04/23 10:25:03;;;;;;;2.80;0.60;;;18.20;85.40;;;;;;5010984;28;20433;-77
2023/04/23 10:27:30;;;;;;;1.53;0.63;;;18.30;86.80;;;;;;5007386;28;20442;-71
2023/04/23 10:30:00;;;;;;;1.40;0.60;;;18.40;86.70;;;;;;5008713;28;20413;-74
2023/04/23 10:32:26;;;;;;;2.37;0.90;;;18.10;84.70;;;;;;4994069;28;20501;-75
2023/04/23 10:34:52;;;;;;;1.40;0.50;;;18.30;87.10;;;;;;5001150;28;20465;-77
2023/04/23 10:37:19;;;;;;;2.33;0.70;;;18.30;87.40;;;;;;5004791;28;20422;-76
2023/04/23 10:39:52;;;;;;;1.90;0.80;;;18.40;87.50;;;;;;5011860;28;20472;-77
2023/04/23 10:42:18;;;;;;;1.70;0.70;;;18.10;86.90;;;;;;5013443;28;20429;-77
2023/04/23 10:44:43;;;;;;;1.37;0.63;;;18.20;85.50;;;;;;4994794;28;20477;-77
2023/04/23 10:47:14;;;;;;;2.13;0.70;;;18.30;87.80;;;;;;4996644;28;20896;-78
2023/04/23 10:49:41;;;;;;;1.30;0.60;;;18.40;85.40;;;;;;5004565;28;20188;-77
2023/04/23 10:52:17;;;;;;;1.70;0.80;;;18.60;88.00;;;;;;4994783;28;20511;-77
2023/04/23 10:54:47;;;;;;;1.77;0.70;;;18.90;86.30;;;;;;4988595;28;21031;-77
2023/04/23 10:57:13;;;;;;;1.67;0.60;;;18.80;82.80;;;;;;5003329;28;20754;-77
2023/04/23 11:00:00;;;;;;;3.43;0.70;;;18.60;83.30;;;;;;5003442;28;20442;-77
2023/04/23 11:02:43;;;;;;;1.30;0.57;;;18.80;85.50;;;;;;4994399;28;20179;-78
2023/04/23 11:05:09;;;;;;;2.03;0.80;;;18.80;85.80;;;;;;4993098;28;20573;-77
2023/04/23 11:07:34;;;;;;;9.73;1.20;;;18.90;84.80;;;;;;4996451;28;20924;-77
2023/04/23 11:10:11;;;;;;;2.20;0.90;;;18.90;82.30;;;;;;4997187;28;20254;-76
2023/04/23 11:12:39;;;;;;;1.30;0.60;;;18.80;82.80;;;;;;4996509;28;20179;-77
2023/04/23 11:15:18;;;;;;;1.40;0.50;;;18.90;84.10;;;;;;5008574;28;20461;-76
2023/04/23 11:17:43;;;;;;;1.40;0.60;;;18.90;85.00;;;;;;4978066;28;20441;-76
2023/04/23 11:20:20;;;;;;;1.30;0.50;;;19.20;86.10;;;;;;4996633;28;20525;-77
2023/04/23 11:22:50;;;;;;;1.40;0.67;;;19.50;86.10;;;;;;5014023;28;20209;-77
2023/04/23 11:25:21;;;;;;;1.70;0.60;;;19.50;85.30;;;;;;5004049;28;20931;-77
2023/04/23 11:27:48;;;;;;;1.90;0.77;;;19.50;84.10;;;;;;4980771;28;20784;-76
2023/04/23 11:30:16;;;;;;;4.70;0.80;;;19.60;85.10;;;;;;5000458;28;20426;-76
2023/04/23 11:32:45;;;;;;;1.40;0.60;;;19.40;82.50;;;;;;4996246;28;20446;-76
2023/04/23 11:35:13;;;;;;;1.50;0.60;;;19.50;85.10;;;;;;4993848;28;20824;-76
2023/04/23 11:37:40;;;;;;;1.70;0.70;;;19.40;83.00;;;;;;5007639;28;20438;-76
2023/04/23 11:40:08;;;;;;;1.57;0.73;;;19.40;82.40;;;;;;5014135;28;20961;-77
2023/04/23 11:42:50;;;;;;;1.47;0.63;;;19.30;82.40;;;;;;5013292;28;20437;-77
2023/04/23 11:45:20;;;;;;;1.60;0.70;;;19.80;81.90;;;;;;4993665;28;20418;-77
2023/04/23 11:47:49;;;;;;;2.70;1.43;;;19.60;85.30;;;;;;5000129;28;20470;-77
2023/04/23 11:50:34;;;;;;;1.90;0.80;;;19.80;81.40;;;;;;4981883;28;20436;-76
2023/04/23 11:53:10;;;;;;;1.83;0.70;;;19.80;82.40;;;;;;5003061;28;20422;-77
2023/04/23 11:55:36;;;;;;;1.30;0.50;;;19.60;82.80;;;;;;5012788;28;20470;-77
2023/04/23 11:58:02;;;;;;;1.47;0.60;;;19.70;85.50;;;;;;5000528;28;20426;-76
2023/04/23 12:00:28;;;;;;;1.67;0.87;;;19.40;82.50;;;;;;5011406;28;20766;-76
2023/04/23 12:03:02;;;;;;;5.30;0.73;;;19.40;82.70;;;;;;5014632;28;20638;-76
2023/04/23 12:05:35;;;;;;;4.50;0.90;;;19.70;84.70;;;;;;5012435;28;20241;-76
2023/04/23 12:08:18;;;;;;;1.80;0.73;;;20.00;83.10;;;;;;5004453;28;20457;-77
2023/04/23 12:10:48;;;;;;;1.30;0.60;;;19.80;81.60;;;;;;5001326;28;20422;-76
2023/04/23 12:13:18;;;;;;;2.00;0.90;;;19.70;83.70;;;;;;5014081;28;20433;-76
2023/04/23 12:15:55;;;;;;;2.33;0.70;;;19.80;83.00;;;;;;5000983;28;20468;-76
2023/04/23 12:18:29;;;;;;;2.57;0.87;;;19.60;81.40;;;;;;4993983;28;20422;-76
2023/04/23 12:20:55;;;;;;;1.90;0.67;;;19.40;82.60;;;;;;4992291;28;20426;-73
2023/04/23 12:23:27;;;;;;;1.77;0.83;;;19.30;82.30;;;;;;5000010;28;20522;-75
2023/04/23 12:25:53;;;;;;;1.53;0.70;;;19.40;81.90;;;;;;4996140;28;20919;-76
2023/04/23 12:28:22;;;;;;;1.40;0.60;;;19.50;83.40;;;;;;5012245;28;20449;-77
2023/04/23 12:30:48;;;;;;;1.87;0.70;;;19.70;80.80;;;;;;5013671;28;20426;-70
2023/04/23 12:33:14;;;;;;;1.87;0.80;;;19.90;80.50;;;;;;5007662;28;20438;-69
2023/04/23 12:35:41;;;;;;;1.40;0.60;;;20.00;80.70;;;;;;4999592;28;20285;-74
2023/04/23 12:38:19;;;;;;;1.70;0.70;;;20.10;81.00;;;;;;5000487;28;20231;-66
2023/04/23 12:40:45;;;;;;;1.30;0.50;;;20.10;80.00;;;;;;5004532;28;20879;-66
2023/04/23 12:43:10;;;;;;;2.70;0.50;;;20.00;79.80;;;;;;4998156;28;21163;-66
2023/04/23 12:45:37;;;;;;;1.30;0.50;;;19.90;78.90;;;;;;4992685;28;20194;-66